DW8359 Weather Reports


Display with metric or nautical units.
time (UTC)temp
F
wind
direction
speed
MPH
gust
MPH
rain 1hr
in
rain 24hr
in
rain mn
in
humidity
%
barometer
mb
20200329063203 51 181 0.0 2.0 0.00 0.84 0.00 99 995.6
20200329061711 51 184 0.0 4.0 0.00 0.84 0.00 99 995.4
20200329053245 52 178 0.0 6.0 0.02 0.93 0.00 99 996.4
20200329051617 51 171 0.0 7.0 0.02 0.93 0.00 99 997.0
20200329050146 49 173 2.0 6.0 0.02 0.93 0.00 99 997.3
20200329043056 47 167 3.0 12.0 0.00 1.03 0.91 99 996.8
20200329041634 46 188 5.0 10.0 0.00 1.03 0.91 99 996.7
20200329040139 46 161 4.0 12.0 0.00 1.03 0.91 99 997.1
20200329033134 46 197 4.0 8.0 0.04 1.15 0.91 99 998.1
20200329031704 47 175 3.0 9.0 0.09 1.15 0.91 99 998.3
20200329030109 46 162 1.0 4.0 0.14 1.15 0.91 99 998.9
20200329023059 48 176 4.0 10.0 0.15 1.12 0.88 99 999.6
20200329021544 47 294 4.0 13.0 0.11 1.09 0.84 99 1001.3
20200329020120 45 133 4.0 11.0 0.07 1.04 0.79 99 1000.6
20200329013111 42 177 1.0 5.0 0.04 1.01 0.73 99 999.8
20200329011616 42 169 1.0 6.0 0.05 1.01 0.73 99 1001.0
20200329010056 42 195 1.0 6.0 0.05 1.01 0.73 99 1001.1
20200329003053 42 186 2.0 7.0 0.02 0.99 0.70 99 1001.2
20200329001609 42 120 1.0 5.0 0.01 0.98 0.69 99 1002.7
20200329000022 41 190 1.0 5.0 0.00 0.97 0.68 99 1002.6
20200328233018 41 130 0.0 3.0 0.01 0.97 0.68 99 1004.0
20200328231535 40 85 0.0 5.0 0.01 0.97 0.68 99 1004.4
20200328230011 40 82 0.0 1.0 0.01 0.97 0.68 99 1004.8
20200328223023 40 82 1.0 4.0 0.01 0.97 0.68 99 1005.1
20200328221532 40 82 0.0 8.0 0.00 0.96 0.67 99 1005.4
20200328220026 40 48 1.0 5.0 0.00 0.96 0.67 99 1005.5
20200328213008 39 45 1.0 5.0 0.00 0.96 0.67 99 1006.2
20200328211507 39 49 1.0 7.0 0.00 0.96 0.67 99 1006.4
20200328210005 39 77 1.0 4.0 0.00 0.96 0.67 99 1006.7
20200328203008 40 32 1.0 5.0 0.01 0.96 0.67 98 1007.2
20200328201520 40 29 2.0 7.0 0.01 0.96 0.67 98 1007.2
20200328200005 40 5 2.0 7.0 0.01 0.96 0.67 98 1007.1
20200328193024 39 331 1.0 6.0 0.01 0.96 0.67 99 1007.6
20200328191507 39 18 1.0 5.0 0.00 0.95 0.66 98 1007.5
20200328190008 40 64 0.0 3.0 0.00 0.95 0.66 98 1007.1
20200328183010 40 19 0.0 5.0 0.00 0.95 0.66 98 1007.6
20200328181504 40 19 0.0 3.0 0.00 0.95 0.66 98 1007.8
20200328180025 40 11 0.0 4.0 0.00 0.95 0.66 98 1007.9
20200328173016 41 22 1.0 4.0 0.00 0.95 0.66 98 1007.5
20200328171507 41 11 0.0 4.0 0.00 0.95 0.66 99 1007.6
20200328170006 41 51 0.0 2.0 0.00 0.95 0.66 99 1007.9
20200328163006 41 51 0.0 3.0 0.00 0.95 0.66 99 1008.1
20200328161503 41 140 0.0 2.0 0.00 0.95 0.66 99 1007.9
20200328160003 41 142 0.0 3.0 0.00 0.95 0.66 99 1007.7
20200328153003 41 51 0.0 0.0 0.00 0.95 0.66 98 1007.8
20200328151510 40 51 0.0 3.0 0.00 0.95 0.66 99 1007.8
20200328150005 40 51 0.0 4.0 0.00 0.95 0.66 99 1007.2
20200328143150 40 73 0.0 1.0 0.00 0.95 0.66 99 1007.7
20200328141617 39 73 0.0 4.0 0.01 0.95 0.66 98 1008.6
20200328141503 39 73 0.0 4.0 0.01 0.95 0.66 98 1008.4
20200328140217 39 29 1.0 5.0 0.03 0.95 0.66 98 1006.8
20200328133034 39 302 1.0 8.0 0.07 0.95 0.66 98 1007.5
20200328131534 39 329 2.0 5.0 0.11 0.95 0.66 98 1007.8
20200328130033 40 53 1.0 4.0 0.13 0.93 0.64 98 1007.9
20200328124613 40 317 2.0 5.0 0.15 0.91 0.62 98 1008.5
20200328123026 40 61 2.0 7.0 0.16 0.88 0.59 98 1006.9
20200328120111 40 61 0.0 6.0 0.18 0.82 0.53 98 1008.6
20200328114520 40 22 2.0 5.0 0.17 0.78 0.49 98 1008.1
20200328113035 40 326 1.0 5.0 0.15 0.74 0.45 98 1008.5
20200328110046 40 178 1.0 10.0 0.12 0.66 0.37 98 1008.6
20200328104524 40 323 1.0 6.0 0.10 0.63 0.34 98 1009.1
20200328103038 40 48 3.0 8.0 0.08 0.60 0.31 98 1008.0
20200328100042 40 66 2.0 9.0 0.06 0.56 0.27 98 1006.8
20200328094610 40 74 5.0 10.0 0.04 0.54 0.25 98 1006.7
20200328093027 39 64 5.0 11.0 0.03 0.52 0.23 98 1006.5
20200328090017 39 78 3.0 9.0 0.04 0.50 0.21 98 1006.7
20200328084528 39 70 3.0 8.0 0.06 0.50 0.21 98 1006.8
20200328083019 40 67 2.0 7.0 0.06 0.49 0.20 98 1007.2
20200328080052 40 51 2.0 4.0 0.05 0.46 0.17 98 1007.8
20200328074538 40 36 0.0 3.0 0.05 0.45 0.16 98 1008.1
20200328073028 40 36 2.0 6.0 0.04 0.43 0.14 98 1007.8
20200328070033 40 41 0.0 1.0 0.04 0.42 0.13 98 1007.9